Little Neck, NY (11363)

7:53 PM EDT on April 21, 2015 (GMT -0400)
Oakland Gardens | | Change Station
CLOSE
Current Station
Personal Weather Station
Location: New York, NY
Elevation: 95 ft
Nearby Weather Stations

Elev 95 ft 40.75 °N, 73.75 °W | Updated 2 minutes ago

Clear
Clear
60.4 °F
Feels Like 60.4 °F
N
1.0
Wind Variable Wind from NNW
Gusts 2.0 mph

Today
High -- | Low -- °F
--% Chance of Precip.
Yesterday
High -- | Low -- °F
Precip. -- in
6:07 AM 7:40 PM
Waxing Crescent, 13% visible
Pressure 29.70 in
Visibility 10.0 miles
Clouds Few 7500 ft
Dew Point 34 °F
Humidity 37%
Rainfall -0.79 in
Snow Depth Not available.
UV 0 out of 12
Pollen 8.70 out of 12
Air Quality Not available.
Flu Activity Widespread
METAR KLGA 212251Z 26017G21KT 10SM FEW075 18/M03 A2970 RMK AO2 PK WND 26026/2213 SLP058 T01781033

More Conditions Fewer Conditions

Pressure 29.70 in
Visibility 10.0 miles
Clouds Few 7500 ft
Dew Point 34 °F
Humidity 37%
Rainfall -0.79 in
Snow Depth Not available.
UV 0 out of 12
Pollen 8.70 out of 12
Air Quality Not available.
Flu Activity Widespread
METAR KLGA 212251Z 26017G21KT 10SM FEW075 18/M03 A2970 RMK AO2 PK WND 26026/2213 SLP058 T01781033

More Conditions Fewer Conditions

10-Day Weather Forecast

Almanac

Astronomy

Apr. 21, 2015 Rise Set
Actual Time
Civil Twilight
Nautical Twilight
Astronomical Twilight
Moon
Length of Visible Light
Length of Day
Tomorrow will be .
, % of the Moon is Illuminated

Today's Extremes

State Highs State Lows

Community

WunderPhotos

Upload Photos

1,815,583 photos uploaded!

WunderBlogs® & News

Nearby

Air Quality

  Air Quality AQ Index Pollutant
Not available.

Snow Depth

Station Depth Elevation

Earthquake Activity

City Distance Mag. Time & Date
Minimum magnitude displayed is 2.5.

Coastal Water Temperatures

Place Temperature

Stations

Nearby Weather Stations

Station Location Temp. Windchill Dew Point Humidity Wind Precip. Elev Updated Type